Hinkle, Kentucky
Current Conditions -  °F | °C
As of 2:04 PM on Saturday 25 Oct 2014 (Local Time) from KLOZ Reporting Station
Overcast Overcast  
Wind Chill: 65°   Ceiling: 2800
Heat Index: 65°   Visibility: 10mi
Dew Point: 49°   Wind: 6mph
Humidity: 56%   Direction: 220°SW
Pressure: 30.04"   Gusts: NA
Location:  36.91°N, 83.82°W
Report Text: KLOZ 251804Z AUTO 22005KT 10SM BKN028 OVC036 18/09 A3004 RMK AO2 T01830094
Loading
Personal Weather Stations






























Interactive Weather Map
Tropical Storm Tracking
New forecast layout! Learn more

10-Day Weather Forecast

Advertisements
Track Severe Weather on mobile